sensor_id;sensor_type;location;lat;lon;timestamp;P1;durP1;ratioP1;P2;durP2;ratioP2
44270;SDS011;29963;44.594;11.368;2022-08-19T00:00:36;5.55;;;3.78;;
44270;SDS011;29963;44.594;11.368;2022-08-19T00:03:03;7.82;;;3.70;;
44270;SDS011;29963;44.594;11.368;2022-08-19T00:05:30;4.07;;;2.70;;
44270;SDS011;29963;44.594;11.368;2022-08-19T00:07:56;4.60;;;2.53;;
44270;SDS011;29963;44.594;11.368;2022-08-19T00:10:22;3.90;;;1.95;;
44270;SDS011;29963;44.594;11.368;2022-08-19T00:12:49;2.33;;;1.75;;
44270;SDS011;29963;44.594;11.368;2022-08-19T00:15:16;5.07;;;2.60;;
44270;SDS011;29963;44.594;11.368;2022-08-19T00:17:44;4.90;;;2.03;;
44270;SDS011;29963;44.594;11.368;2022-08-19T00:20:12;5.30;;;2.88;;
44270;SDS011;29963;44.594;11.368;2022-08-19T00:22:42;5.85;;;2.53;;
44270;SDS011;29963;44.594;11.368;2022-08-19T00:25:09;3.55;;;2.33;;
44270;SDS011;29963;44.594;11.368;2022-08-19T00:27:35;3.08;;;2.05;;
44270;SDS011;29963;44.594;11.368;2022-08-19T00:30:02;4.57;;;2.42;;
44270;SDS011;29963;44.594;11.368;2022-08-19T00:32:30;4.15;;;2.58;;
44270;SDS011;29963;44.594;11.368;2022-08-19T00:34:55;6.93;;;3.13;;
44270;SDS011;29963;44.594;11.368;2022-08-19T00:37:22;5.72;;;2.72;;
44270;SDS011;29963;44.594;11.368;2022-08-19T00:39:50;4.28;;;2.72;;
44270;SDS011;29963;44.594;11.368;2022-08-19T00:42:17;5.80;;;2.72;;
44270;SDS011;29963;44.594;11.368;2022-08-19T00:44:44;7.00;;;2.55;;
44270;SDS011;29963;44.594;11.368;2022-08-19T00:47:09;6.10;;;2.85;;
44270;SDS011;29963;44.594;11.368;2022-08-19T00:49:47;8.73;;;3.40;;
44270;SDS011;29963;44.594;11.368;2022-08-19T00:52:23;6.78;;;3.67;;
44270;SDS011;29963;44.594;11.368;2022-08-19T00:54:53;10.48;;;3.95;;
44270;SDS011;29963;44.594;11.368;2022-08-19T00:57:22;5.18;;;2.67;;
44270;SDS011;29963;44.594;11.368;2022-08-19T00:59:53;4.63;;;3.05;;
44270;SDS011;29963;44.594;11.368;2022-08-19T01:02:24;8.60;;;3.33;;
44270;SDS011;29963;44.594;11.368;2022-08-19T01:04:50;9.45;;;3.85;;
44270;SDS011;29963;44.594;11.368;2022-08-19T01:07:15;7.50;;;3.13;;
44270;SDS011;29963;44.594;11.368;2022-08-19T01:09:42;4.85;;;2.42;;
44270;SDS011;29963;44.594;11.368;2022-08-19T01:12:08;3.33;;;1.90;;
44270;SDS011;29963;44.594;11.368;2022-08-19T01:14:34;4.65;;;2.03;;
44270;SDS011;29963;44.594;11.368;2022-08-19T01:17:01;4.30;;;1.90;;
44270;SDS011;29963;44.594;11.368;2022-08-19T01:19:29;6.60;;;1.70;;
44270;SDS011;29963;44.594;11.368;2022-08-19T01:22:01;5.53;;;1.80;;
44270;SDS011;29963;44.594;11.368;2022-08-19T01:24:31;3.30;;;1.55;;
44270;SDS011;29963;44.594;11.368;2022-08-19T01:26:56;6.68;;;1.77;;
44270;SDS011;29963;44.594;11.368;2022-08-19T01:29:22;3.13;;;1.98;;
44270;SDS011;29963;44.594;11.368;2022-08-19T01:31:48;6.95;;;2.35;;
44270;SDS011;29963;44.594;11.368;2022-08-19T01:34:18;6.57;;;1.83;;
44270;SDS011;29963;44.594;11.368;2022-08-19T01:36:46;3.65;;;1.65;;
44270;SDS011;29963;44.594;11.368;2022-08-19T01:39:17;4.72;;;1.83;;
44270;SDS011;29963;44.594;11.368;2022-08-19T01:41:45;6.95;;;1.90;;
44270;SDS011;29963;44.594;11.368;2022-08-19T01:44:11;4.32;;;1.85;;
44270;SDS011;29963;44.594;11.368;2022-08-19T01:46:40;1.65;;;1.30;;
44270;SDS011;29963;44.594;11.368;2022-08-19T01:49:06;3.85;;;1.60;;
44270;SDS011;29963;44.594;11.368;2022-08-19T01:51:33;4.32;;;1.55;;
44270;SDS011;29963;44.594;11.368;2022-08-19T01:53:58;5.68;;;1.42;;
44270;SDS011;29963;44.594;11.368;2022-08-19T01:56:24;3.88;;;1.60;;
44270;SDS011;29963;44.594;11.368;2022-08-19T01:58:52;4.47;;;1.52;;
44270;SDS011;29963;44.594;11.368;2022-08-19T02:01:21;3.42;;;1.77;;
44270;SDS011;29963;44.594;11.368;2022-08-19T02:03:47;8.60;;;1.58;;
44270;SDS011;29963;44.594;11.368;2022-08-19T02:06:12;5.05;;;1.55;;
44270;SDS011;29963;44.594;11.368;2022-08-19T02:08:39;3.65;;;1.50;;
44270;SDS011;29963;44.594;11.368;2022-08-19T02:11:05;6.85;;;1.70;;
44270;SDS011;29963;44.594;11.368;2022-08-19T02:13:32;4.75;;;2.60;;
44270;SDS011;29963;44.594;11.368;2022-08-19T02:15:59;4.05;;;2.25;;
44270;SDS011;29963;44.594;11.368;2022-08-19T02:18:25;4.43;;;2.22;;
44270;SDS011;29963;44.594;11.368;2022-08-19T02:20:51;3.88;;;1.50;;
44270;SDS011;29963;44.594;11.368;2022-08-19T02:23:17;3.65;;;1.27;;
44270;SDS011;29963;44.594;11.368;2022-08-19T02:25:44;5.30;;;2.08;;
44270;SDS011;29963;44.594;11.368;2022-08-19T02:28:11;3.40;;;1.48;;
44270;SDS011;29963;44.594;11.368;2022-08-19T02:30:38;4.72;;;2.03;;
44270;SDS011;29963;44.594;11.368;2022-08-19T02:33:05;2.92;;;1.80;;
44270;SDS011;29963;44.594;11.368;2022-08-19T02:35:31;5.10;;;2.13;;
44270;SDS011;29963;44.594;11.368;2022-08-19T02:37:56;4.05;;;1.90;;
44270;SDS011;29963;44.594;11.368;2022-08-19T02:40:47;6.68;;;2.25;;
44270;SDS011;29963;44.594;11.368;2022-08-19T02:43:14;4.78;;;2.00;;
44270;SDS011;29963;44.594;11.368;2022-08-19T02:45:40;2.85;;;1.50;;
44270;SDS011;29963;44.594;11.368;2022-08-19T02:48:06;4.50;;;1.92;;
44270;SDS011;29963;44.594;11.368;2022-08-19T02:50:33;6.15;;;2.53;;
44270;SDS011;29963;44.594;11.368;2022-08-19T02:53:03;6.20;;;2.55;;
44270;SDS011;29963;44.594;11.368;2022-08-19T02:55:29;6.97;;;2.05;;
44270;SDS011;29963;44.594;11.368;2022-08-19T02:57:55;5.63;;;2.45;;
44270;SDS011;29963;44.594;11.368;2022-08-19T03:00:22;5.80;;;2.20;;
44270;SDS011;29963;44.594;11.368;2022-08-19T03:02:49;2.65;;;1.50;;
44270;SDS011;29963;44.594;11.368;2022-08-19T03:05:14;5.45;;;1.92;;
44270;SDS011;29963;44.594;11.368;2022-08-19T03:07:40;4.70;;;1.70;;
44270;SDS011;29963;44.594;11.368;2022-08-19T03:10:06;8.80;;;2.20;;
44270;SDS011;29963;44.594;11.368;2022-08-19T03:12:34;3.83;;;2.78;;
44270;SDS011;29963;44.594;11.368;2022-08-19T03:15:03;3.40;;;1.75;;
44270;SDS011;29963;44.594;11.368;2022-08-19T03:17:33;3.92;;;2.10;;
44270;SDS011;29963;44.594;11.368;2022-08-19T03:19:59;8.10;;;2.70;;
44270;SDS011;29963;44.594;11.368;2022-08-19T03:22:25;6.57;;;2.33;;
44270;SDS011;29963;44.594;11.368;2022-08-19T03:24:51;6.82;;;2.33;;
44270;SDS011;29963;44.594;11.368;2022-08-19T03:27:16;7.50;;;2.35;;
44270;SDS011;29963;44.594;11.368;2022-08-19T03:29:42;5.40;;;3.05;;
44270;SDS011;29963;44.594;11.368;2022-08-19T03:32:09;2.67;;;1.77;;
44270;SDS011;29963;44.594;11.368;2022-08-19T03:34:38;13.45;;;3.33;;
44270;SDS011;29963;44.594;11.368;2022-08-19T03:37:05;9.15;;;3.35;;
44270;SDS011;29963;44.594;11.368;2022-08-19T03:39:33;4.15;;;2.72;;
44270;SDS011;29963;44.594;11.368;2022-08-19T03:42:00;11.77;;;2.95;;
44270;SDS011;29963;44.594;11.368;2022-08-19T03:44:27;4.22;;;3.05;;
44270;SDS011;29963;44.594;11.368;2022-08-19T03:46:55;10.13;;;2.92;;
44270;SDS011;29963;44.594;11.368;2022-08-19T03:49:23;6.78;;;3.22;;
44270;SDS011;29963;44.594;11.368;2022-08-19T03:51:51;5.03;;;2.70;;
44270;SDS011;29963;44.594;11.368;2022-08-19T03:54:22;5.88;;;2.92;;
44270;SDS011;29963;44.594;11.368;2022-08-19T03:56:51;6.60;;;2.65;;
44270;SDS011;29963;44.594;11.368;2022-08-19T03:59:23;7.78;;;2.45;;
44270;SDS011;29963;44.594;11.368;2022-08-19T04:01:52;6.75;;;2.65;;
44270;SDS011;29963;44.594;11.368;2022-08-19T04:04:19;8.65;;;3.05;;
44270;SDS011;29963;44.594;11.368;2022-08-19T04:06:46;9.27;;;3.78;;
44270;SDS011;29963;44.594;11.368;2022-08-19T04:09:12;8.13;;;2.88;;
44270;SDS011;29963;44.594;11.368;2022-08-19T04:11:39;5.43;;;3.72;;
44270;SDS011;29963;44.594;11.368;2022-08-19T04:14:06;9.32;;;3.58;;
44270;SDS011;29963;44.594;11.368;2022-08-19T04:16:34;12.25;;;4.50;;
44270;SDS011;29963;44.594;11.368;2022-08-19T04:19:00;16.38;;;4.57;;
44270;SDS011;29963;44.594;11.368;2022-08-19T04:21:28;8.82;;;4.32;;
44270;SDS011;29963;44.594;11.368;2022-08-19T04:23:55;11.10;;;4.53;;
44270;SDS011;29963;44.594;11.368;2022-08-19T04:26:23;11.63;;;5.93;;
44270;SDS011;29963;44.594;11.368;2022-08-19T04:28:53;12.50;;;5.93;;
44270;SDS011;29963;44.594;11.368;2022-08-19T04:31:24;11.45;;;5.15;;
44270;SDS011;29963;44.594;11.368;2022-08-19T04:33:52;10.57;;;4.88;;
44270;SDS011;29963;44.594;11.368;2022-08-19T04:36:29;10.45;;;5.35;;
44270;SDS011;29963;44.594;11.368;2022-08-19T04:38:57;13.45;;;5.50;;
44270;SDS011;29963;44.594;11.368;2022-08-19T04:41:24;19.80;;;7.10;;
44270;SDS011;29963;44.594;11.368;2022-08-19T04:44:09;11.85;;;7.28;;
44270;SDS011;29963;44.594;11.368;2022-08-19T04:46:35;15.05;;;7.05;;
44270;SDS011;29963;44.594;11.368;2022-08-19T04:49:02;7.95;;;4.68;;
44270;SDS011;29963;44.594;11.368;2022-08-19T04:51:30;15.13;;;4.40;;
44270;SDS011;29963;44.594;11.368;2022-08-19T04:53:57;9.85;;;4.13;;
44270;SDS011;29963;44.594;11.368;2022-08-19T04:56:24;7.75;;;3.13;;
44270;SDS011;29963;44.594;11.368;2022-08-19T04:58:51;9.82;;;3.38;;
44270;SDS011;29963;44.594;11.368;2022-08-19T05:01:18;12.25;;;3.85;;
44270;SDS011;29963;44.594;11.368;2022-08-19T05:03:49;14.35;;;3.75;;
44270;SDS011;29963;44.594;11.368;2022-08-19T05:06:19;10.82;;;3.65;;
44270;SDS011;29963;44.594;11.368;2022-08-19T05:08:46;11.07;;;4.60;;
44270;SDS011;29963;44.594;11.368;2022-08-19T05:11:17;8.80;;;4.28;;
44270;SDS011;29963;44.594;11.368;2022-08-19T05:13:47;11.32;;;5.03;;
44270;SDS011;29963;44.594;11.368;2022-08-19T05:16:14;14.55;;;4.10;;
44270;SDS011;29963;44.594;11.368;2022-08-19T05:18:41;9.38;;;4.18;;
44270;SDS011;29963;44.594;11.368;2022-08-19T05:21:26;11.50;;;3.50;;
44270;SDS011;29963;44.594;11.368;2022-08-19T05:24:11;7.55;;;3.47;;
44270;SDS011;29963;44.594;11.368;2022-08-19T05:26:39;5.38;;;3.03;;
44270;SDS011;29963;44.594;11.368;2022-08-19T05:29:07;10.18;;;3.50;;
44270;SDS011;29963;44.594;11.368;2022-08-19T05:31:33;19.50;;;9.02;;
44270;SDS011;29963;44.594;11.368;2022-08-19T05:34:00;10.27;;;6.28;;
44270;SDS011;29963;44.594;11.368;2022-08-19T05:36:27;5.65;;;3.60;;
44270;SDS011;29963;44.594;11.368;2022-08-19T05:38:54;8.75;;;3.28;;
44270;SDS011;29963;44.594;11.368;2022-08-19T05:41:21;7.15;;;3.08;;
44270;SDS011;29963;44.594;11.368;2022-08-19T05:43:54;12.43;;;4.40;;
44270;SDS011;29963;44.594;11.368;2022-08-19T05:46:21;14.77;;;5.07;;
44270;SDS011;29963;44.594;11.368;2022-08-19T05:48:47;12.75;;;2.90;;
44270;SDS011;29963;44.594;11.368;2022-08-19T05:51:13;9.77;;;3.22;;
44270;SDS011;29963;44.594;11.368;2022-08-19T05:53:40;6.05;;;2.50;;
44270;SDS011;29963;44.594;11.368;2022-08-19T07:10:23;9.45;;;2.13;;
44270;SDS011;29963;44.594;11.368;2022-08-19T07:12:50;4.55;;;1.63;;
44270;SDS011;29963;44.594;11.368;2022-08-19T07:15:16;4.15;;;1.77;;
44270;SDS011;29963;44.594;11.368;2022-08-19T07:17:42;4.32;;;2.03;;
44270;SDS011;29963;44.594;11.368;2022-08-19T07:20:08;5.00;;;1.45;;
